createdAt,value
2017-12-30T00:00:55.327Z,3.38
2017-12-30T00:01:55.669Z,3.38
2017-12-30T00:02:55.598Z,3.38
2017-12-30T00:03:55.667Z,3.38
2017-12-30T00:04:55.686Z,3.38
2017-12-30T00:05:56.993Z,3.37
2017-12-30T00:06:54.845Z,3.39
2017-12-30T00:07:55.887Z,3.41
2017-12-30T00:08:55.335Z,3.38
2017-12-30T00:09:55.350Z,3.38
2017-12-30T00:10:55.570Z,3.37
2017-12-30T00:11:55.896Z,3.37
2017-12-30T00:12:55.258Z,3.37
2017-12-30T00:13:55.343Z,3.34
2017-12-30T00:14:55.371Z,3.35
2017-12-30T00:15:55.382Z,3.37
2017-12-30T00:16:55.700Z,3.31
2017-12-30T00:17:55.910Z,3.29
2017-12-30T00:18:55.959Z,3.27
2017-12-30T00:19:58.712Z,3.27
2017-12-30T00:20:58.634Z,3.22
2017-12-30T00:21:57.897Z,3.22
2017-12-30T00:22:56.192Z,3.2
2017-12-30T00:23:55.616Z,3.15
2017-12-30T00:24:56.256Z,3.18
2017-12-30T00:25:56.927Z,3.15
2017-12-30T00:26:55.734Z,3.14
2017-12-30T00:27:55.842Z,3.11
2017-12-30T00:28:56.004Z,3.08
2017-12-30T00:29:56.910Z,3.07
2017-12-30T00:30:57.161Z,3.04
2017-12-30T00:31:57.162Z,3
2017-12-30T00:32:56.263Z,2.97
2017-12-30T00:33:58.106Z,2.96
2017-12-30T00:35:02.195Z,2.94
2017-12-30T00:35:56.721Z,2.92
2017-12-30T00:36:56.852Z,2.9
2017-12-30T00:37:55.650Z,2.89
2017-12-30T00:38:55.619Z,2.89
2017-12-30T00:39:55.658Z,2.87
2017-12-30T00:40:57.153Z,2.89
2017-12-30T00:41:56.678Z,2.89
2017-12-30T00:42:56.485Z,2.87
2017-12-30T00:43:56.341Z,2.9
2017-12-30T00:44:55.722Z,2.93
2017-12-30T00:45:57.348Z,2.94
2017-12-30T00:46:55.288Z,2.94
2017-12-30T00:47:55.691Z,3
2017-12-30T00:48:55.813Z,3.01
2017-12-30T00:49:55.821Z,3.03
2017-12-30T00:50:55.843Z,3.07
2017-12-30T00:51:54.827Z,3.11
2017-12-30T00:52:55.848Z,3.14
2017-12-30T00:53:56.571Z,3.2
2017-12-30T00:54:58.165Z,3.24
2017-12-30T00:55:55.354Z,3.29
2017-12-30T00:56:57.485Z,3.32
2017-12-30T00:57:55.491Z,3.32
2017-12-30T00:58:55.441Z,3.37
2017-12-30T00:59:55.464Z,3.42
2017-12-30T01:00:55.374Z,3.45
2017-12-30T01:01:55.527Z,3.46
2017-12-30T01:02:55.690Z,3.46
2017-12-30T01:03:56.126Z,3.49
2017-12-30T01:04:55.119Z,3.51
2017-12-30T01:05:55.196Z,3.52
2017-12-30T01:06:55.285Z,3.54
2017-12-30T01:07:55.116Z,3.55
2017-12-30T01:08:55.231Z,3.56
2017-12-30T01:09:55.201Z,3.58
2017-12-30T01:10:55.322Z,3.59
2017-12-30T01:11:55.282Z,3.59
2017-12-30T01:12:55.252Z,3.58
2017-12-30T01:13:55.092Z,3.59
2017-12-30T01:14:55.247Z,3.62
2017-12-30T01:15:55.194Z,3.59
2017-12-30T01:16:55.259Z,3.61
2017-12-30T01:17:55.268Z,3.65
2017-12-30T01:18:55.419Z,3.63
2017-12-30T01:19:55.487Z,3.65
2017-12-30T01:20:55.552Z,3.62
2017-12-30T01:21:55.512Z,3.63
2017-12-30T01:22:55.739Z,3.66
2017-12-30T01:23:55.890Z,3.67
2017-12-30T01:24:55.945Z,3.72
2017-12-30T01:25:55.888Z,3.7
2017-12-30T01:26:56.079Z,3.72
2017-12-30T01:27:56.134Z,3.73
2017-12-30T01:28:56.276Z,3.73
2017-12-30T01:29:55.387Z,3.73
2017-12-30T01:30:55.366Z,3.72
2017-12-30T01:31:55.360Z,3.73
2017-12-30T01:32:55.240Z,3.73
2017-12-30T01:33:55.198Z,3.73
2017-12-30T01:34:56.158Z,3.74
2017-12-30T01:35:55.198Z,3.74
2017-12-30T01:36:56.180Z,3.76
2017-12-30T01:37:55.245Z,3.74
2017-12-30T01:38:55.268Z,3.76
2017-12-30T01:39:55.404Z,3.76
2017-12-30T01:40:55.463Z,3.74
2017-12-30T01:41:55.749Z,3.76
2017-12-30T01:42:55.743Z,3.77
2017-12-30T01:43:55.702Z,3.76
2017-12-30T01:44:55.863Z,3.79
2017-12-30T01:45:56.097Z,3.82
2017-12-30T01:46:56.096Z,3.8
2017-12-30T01:49:03.822Z,3.82
2017-12-30T01:49:55.883Z,3.8
2017-12-30T01:50:55.122Z,3.84
2017-12-30T01:51:56.021Z,3.84
2017-12-30T01:52:56.000Z,3.83
2017-12-30T01:53:55.696Z,3.84
2017-12-30T01:54:55.882Z,3.86
2017-12-30T01:55:55.733Z,3.84
2017-12-30T01:56:55.519Z,3.84
2017-12-30T01:57:55.481Z,3.83
2017-12-30T01:58:55.539Z,3.83
2017-12-30T02:02:00.854Z,3.86
2017-12-30T02:02:55.948Z,3.84
2017-12-30T02:03:55.771Z,3.82
2017-12-30T02:04:55.772Z,3.84
2017-12-30T02:05:55.793Z,3.83
2017-12-30T02:06:55.719Z,3.8
2017-12-30T02:07:55.623Z,3.82
2017-12-30T02:08:55.366Z,3.77
2017-12-30T02:09:55.308Z,3.76
2017-12-30T02:10:55.312Z,3.74
2017-12-30T02:11:55.239Z,3.74
2017-12-30T02:12:55.345Z,3.73
2017-12-30T02:13:55.443Z,3.69
2017-12-30T02:14:55.600Z,3.72
2017-12-30T02:15:55.679Z,3.73
2017-12-30T02:16:55.923Z,3.7
2017-12-30T02:17:56.124Z,3.7
2017-12-30T02:18:55.836Z,3.72
2017-12-30T02:19:55.707Z,3.73
2017-12-30T02:20:55.643Z,3.74
2017-12-30T02:21:55.732Z,3.72
2017-12-30T02:22:55.780Z,3.73
2017-12-30T02:23:55.579Z,3.72
2017-12-30T02:24:55.454Z,3.72
2017-12-30T02:25:55.316Z,3.73
2017-12-30T02:26:55.477Z,3.74
2017-12-30T02:27:55.485Z,3.76
2017-12-30T02:28:55.459Z,3.76
2017-12-30T02:29:55.560Z,3.76
2017-12-30T02:30:56.136Z,3.79
2017-12-30T02:31:55.168Z,3.79
2017-12-30T02:32:55.043Z,3.77
2017-12-30T02:33:56.292Z,3.79
2017-12-30T02:34:55.446Z,3.8
2017-12-30T02:35:55.542Z,3.86
2017-12-30T02:36:55.699Z,3.86
2017-12-30T02:37:55.703Z,3.87
2017-12-30T02:38:55.562Z,3.9
2017-12-30T02:39:55.539Z,3.89
2017-12-30T02:40:55.598Z,3.93
2017-12-30T02:41:55.551Z,3.93
2017-12-30T02:42:55.479Z,3.96
2017-12-30T02:43:55.414Z,3.94
2017-12-30T02:44:55.366Z,3.91
2017-12-30T02:45:55.221Z,3.91
2017-12-30T02:46:55.199Z,3.93
2017-12-30T02:47:55.425Z,3.9
2017-12-30T02:48:55.629Z,3.9
2017-12-30T02:49:55.514Z,3.9
2017-12-30T02:50:56.459Z,3.9
2017-12-30T02:51:56.462Z,3.89
2017-12-30T02:52:56.443Z,3.84
2017-12-30T02:53:55.785Z,3.84
2017-12-30T02:54:55.725Z,3.84
2017-12-30T02:55:55.841Z,3.83
2017-12-30T02:56:55.762Z,3.79
2017-12-30T02:57:55.755Z,3.8
2017-12-30T02:58:55.542Z,3.77
2017-12-30T02:59:55.447Z,3.77
2017-12-30T03:00:56.402Z,3.79
2017-12-30T03:01:56.359Z,3.77
2017-12-30T03:02:56.309Z,3.77
2017-12-30T03:03:56.340Z,3.76
2017-12-30T03:04:56.420Z,3.72
2017-12-30T03:05:56.783Z,3.74
2017-12-30T03:06:55.851Z,3.77
2017-12-30T03:07:55.766Z,3.77
2017-12-30T03:08:55.702Z,3.79
2017-12-30T03:09:55.516Z,3.77
2017-12-30T03:10:55.598Z,3.79
2017-12-30T03:11:55.439Z,3.77
2017-12-30T03:12:56.276Z,3.77
2017-12-30T03:13:56.429Z,3.74
2017-12-30T03:14:56.474Z,3.74
2017-12-30T03:15:55.485Z,3.74
2017-12-30T03:16:56.580Z,3.72
2017-12-30T03:17:55.632Z,3.69
2017-12-30T03:18:55.696Z,3.7
2017-12-30T03:19:55.961Z,3.69
2017-12-30T03:20:55.786Z,3.69
2017-12-30T03:21:55.848Z,3.69
2017-12-30T03:22:55.864Z,3.7
2017-12-30T03:23:55.882Z,3.67
2017-12-30T03:24:55.875Z,3.69
2017-12-30T03:25:55.792Z,3.69
2017-12-30T03:26:55.653Z,3.72
2017-12-30T03:27:56.565Z,3.74
2017-12-30T03:28:56.681Z,3.72
2017-12-30T03:29:55.780Z,3.73
2017-12-30T03:30:55.753Z,3.77
2017-12-30T03:31:55.885Z,3.76
2017-12-30T03:32:55.969Z,3.76
2017-12-30T03:33:56.180Z,3.76
2017-12-30T03:34:56.191Z,3.76
2017-12-30T03:35:56.267Z,3.77
2017-12-30T03:36:56.226Z,3.79
2017-12-30T03:37:56.076Z,3.74
2017-12-30T03:38:56.062Z,3.76
2017-12-30T03:39:56.119Z,3.77
2017-12-30T03:40:55.983Z,3.77
2017-12-30T03:41:56.194Z,3.74
2017-12-30T03:42:56.281Z,3.74
2017-12-30T03:43:56.476Z,3.72
2017-12-30T03:44:56.596Z,3.74
2017-12-30T03:45:56.439Z,3.7
2017-12-30T03:46:56.357Z,3.7
2017-12-30T03:47:56.325Z,3.7
2017-12-30T03:48:56.286Z,3.69
2017-12-30T03:49:55.188Z,3.69
2017-12-30T03:52:58.269Z,3.66
2017-12-30T03:53:55.429Z,3.66
2017-12-30T03:54:55.448Z,3.66
2017-12-30T03:55:56.021Z,3.66
2017-12-30T03:56:55.793Z,3.63
2017-12-30T03:57:55.719Z,3.63
2017-12-30T03:58:56.149Z,3.62
2017-12-30T03:59:56.260Z,3.62
2017-12-30T04:00:55.310Z,3.63
2017-12-30T04:01:55.242Z,3.63
2017-12-30T04:02:55.416Z,3.63
2017-12-30T04:03:55.435Z,3.63
2017-12-30T04:04:55.575Z,3.63
2017-12-30T04:05:55.505Z,3.65
2017-12-30T04:06:55.497Z,3.63
2017-12-30T04:07:55.329Z,3.62
2017-12-30T04:08:55.384Z,3.62
2017-12-30T04:09:55.373Z,3.61
2017-12-30T04:10:55.508Z,3.62
2017-12-30T04:11:55.431Z,3.61
2017-12-30T04:12:55.757Z,3.58
2017-12-30T04:13:56.171Z,3.56
2017-12-30T04:14:55.282Z,3.58
2017-12-30T04:15:56.249Z,3.56
2017-12-30T04:16:55.415Z,3.55
2017-12-30T04:17:55.568Z,3.54
2017-12-30T04:18:55.573Z,3.52
2017-12-30T04:19:55.573Z,3.52
2017-12-30T04:20:55.731Z,3.52
2017-12-30T04:21:55.764Z,3.54
2017-12-30T04:22:55.746Z,3.51
2017-12-30T04:23:55.892Z,3.54
2017-12-30T04:24:56.046Z,3.52
2017-12-30T04:25:56.004Z,3.52
2017-12-30T04:26:56.004Z,3.51
2017-12-30T04:27:56.336Z,3.54
2017-12-30T04:28:56.448Z,3.52
2017-12-30T04:29:56.285Z,3.52
2017-12-30T04:30:56.351Z,3.54
2017-12-30T04:31:56.521Z,3.55
2017-12-30T04:32:55.747Z,3.58
2017-12-30T04:33:55.662Z,3.59
2017-12-30T04:34:55.582Z,3.58
2017-12-30T04:35:55.500Z,3.58
2017-12-30T04:36:55.539Z,3.56
2017-12-30T04:37:55.657Z,3.56
2017-12-30T04:38:55.593Z,3.61
2017-12-30T04:39:56.618Z,3.61
2017-12-30T04:40:55.678Z,3.61
2017-12-30T04:41:55.571Z,3.61
2017-12-30T04:42:56.504Z,3.65
2017-12-30T04:43:55.562Z,3.67
2017-12-30T04:44:55.502Z,3.66
2017-12-30T04:45:56.477Z,3.65
2017-12-30T04:46:55.661Z,3.65
2017-12-30T04:47:55.652Z,3.62
2017-12-30T04:48:55.612Z,3.66
2017-12-30T04:49:56.494Z,3.66
2017-12-30T04:50:56.685Z,3.69
2017-12-30T04:51:55.652Z,3.72
2017-12-30T04:52:56.645Z,3.69
2017-12-30T04:53:55.732Z,3.69
2017-12-30T04:54:55.752Z,3.72
2017-12-30T04:55:56.349Z,3.73
2017-12-30T04:56:56.385Z,3.72
2017-12-30T04:57:56.276Z,3.73
2017-12-30T04:58:56.385Z,3.74
2017-12-30T04:59:56.600Z,3.74
2017-12-30T05:00:55.668Z,3.76
2017-12-30T05:01:55.507Z,3.76
2017-12-30T05:02:56.373Z,3.79
2017-12-30T05:04:05.046Z,3.8
2017-12-30T05:04:56.219Z,3.8
2017-12-30T05:05:56.127Z,3.83
2017-12-30T05:06:56.212Z,3.84
2017-12-30T05:07:56.201Z,3.86
2017-12-30T05:08:56.233Z,3.87
2017-12-30T05:09:56.341Z,3.91
2017-12-30T05:10:56.661Z,3.91
2017-12-30T05:11:55.706Z,3.94
2017-12-30T05:12:55.763Z,3.97
2017-12-30T05:13:55.908Z,3.98
2017-12-30T05:14:55.802Z,4.01
2017-12-30T05:15:55.768Z,4
2017-12-30T05:16:55.653Z,4.01
2017-12-30T05:17:55.659Z,4.02
2017-12-30T05:18:55.628Z,4.07
2017-12-30T05:19:55.599Z,4.04
2017-12-30T05:20:56.642Z,4.05
2017-12-30T05:21:55.736Z,4.08
2017-12-30T05:22:55.747Z,4.11
2017-12-30T05:23:55.722Z,4.12
2017-12-30T05:24:55.604Z,4.17
2017-12-30T05:25:55.688Z,4.17
2017-12-30T05:26:55.734Z,4.17
2017-12-30T05:27:55.877Z,4.21
2017-12-30T05:28:56.096Z,4.19
2017-12-30T05:29:56.071Z,4.21
2017-12-30T05:30:55.937Z,4.21
2017-12-30T05:31:55.685Z,4.21
2017-12-30T05:32:56.452Z,4.24
2017-12-30T05:33:56.863Z,4.22
2017-12-30T05:34:55.820Z,4.24
2017-12-30T05:35:55.716Z,4.22
2017-12-30T05:36:55.693Z,4.22
2017-12-30T05:37:56.627Z,4.24
2017-12-30T05:38:55.768Z,4.21
2017-12-30T05:39:55.704Z,4.21
2017-12-30T05:40:55.677Z,4.22
2017-12-30T05:41:55.567Z,4.25
2017-12-30T05:42:56.558Z,4.22
2017-12-30T05:43:55.704Z,4.25
2017-12-30T05:44:55.762Z,4.26
2017-12-30T05:45:55.648Z,4.26
2017-12-30T05:46:56.497Z,4.29
2017-12-30T05:47:56.618Z,4.29
2017-12-30T05:48:55.774Z,4.32
2017-12-30T05:49:55.828Z,4.3
2017-12-30T05:50:55.872Z,4.29
2017-12-30T05:51:55.839Z,4.32
2017-12-30T05:52:55.781Z,4.32
2017-12-30T05:53:55.747Z,4.3
2017-12-30T05:54:54.889Z,4.29
2017-12-30T05:55:55.883Z,4.32
2017-12-30T05:56:55.826Z,4.32
2017-12-30T05:57:55.702Z,4.33
2017-12-30T05:58:55.581Z,4.33
2017-12-30T05:59:55.303Z,4.35
2017-12-30T06:00:55.227Z,4.33
2017-12-30T06:01:55.243Z,4.36
2017-12-30T06:02:55.230Z,4.33
2017-12-30T06:03:55.224Z,4.36
2017-12-30T06:04:55.143Z,4.35
2017-12-30T06:05:55.153Z,4.35
2017-12-30T06:06:55.359Z,4.35
2017-12-30T06:07:55.536Z,4.38
2017-12-30T06:08:55.771Z,4.39
2017-12-30T06:09:55.897Z,4.4
2017-12-30T06:10:55.276Z,4.42
2017-12-30T06:11:55.324Z,4.45
2017-12-30T06:12:55.461Z,4.46
2017-12-30T06:13:55.496Z,4.46
2017-12-30T06:14:55.560Z,4.52
2017-12-30T06:15:55.513Z,4.55
2017-12-30T06:16:55.475Z,4.55
2017-12-30T06:17:55.392Z,4.55
2017-12-30T06:18:55.388Z,4.55
2017-12-30T06:19:55.331Z,4.59
2017-12-30T06:20:55.475Z,4.6
2017-12-30T06:21:55.622Z,4.59
2017-12-30T06:22:54.793Z,4.62
2017-12-30T06:23:55.792Z,4.6
2017-12-30T06:24:54.847Z,4.6
2017-12-30T06:25:54.986Z,4.6
2017-12-30T06:26:55.376Z,4.62
2017-12-30T06:27:55.377Z,4.62
2017-12-30T06:28:55.338Z,4.62
2017-12-30T06:29:55.402Z,4.63
2017-12-30T06:30:55.341Z,4.63
2017-12-30T06:31:55.225Z,4.62
2017-12-30T06:32:55.526Z,4.65
2017-12-30T06:33:55.678Z,4.63
2017-12-30T06:34:55.838Z,4.62
2017-12-30T06:35:54.870Z,4.65
2017-12-30T06:36:54.833Z,4.62
2017-12-30T06:37:55.035Z,4.66
2017-12-30T06:38:55.125Z,4.66
2017-12-30T06:39:55.345Z,4.66
2017-12-30T06:40:55.277Z,4.63
2017-12-30T06:41:55.363Z,4.63
2017-12-30T06:42:55.229Z,4.66
2017-12-30T06:43:55.125Z,4.63
2017-12-30T06:44:55.062Z,4.65
2017-12-30T06:45:55.011Z,4.66
2017-12-30T06:46:55.046Z,4.66
2017-12-30T06:47:55.102Z,4.66
2017-12-30T06:48:55.044Z,4.67
2017-12-30T06:49:55.025Z,4.69
2017-12-30T06:50:55.238Z,4.7
2017-12-30T06:51:55.281Z,4.67
2017-12-30T06:52:55.244Z,4.69
2017-12-30T06:53:55.211Z,4.72
2017-12-30T06:54:56.293Z,4.69
2017-12-30T06:55:55.272Z,4.7
2017-12-30T06:56:56.387Z,4.72
2017-12-30T06:57:55.580Z,4.7
2017-12-30T06:58:55.603Z,4.69
2017-12-30T06:59:55.614Z,4.72
2017-12-30T07:00:55.457Z,4.7
2017-12-30T07:01:55.490Z,4.72
2017-12-30T07:02:55.315Z,4.72
2017-12-30T07:03:56.290Z,4.74
2017-12-30T07:04:55.302Z,4.73
2017-12-30T07:05:56.180Z,4.7
2017-12-30T07:06:56.315Z,4.72
2017-12-30T07:07:55.559Z,4.73
2017-12-30T07:08:55.333Z,4.73
2017-12-30T07:09:55.522Z,4.73
2017-12-30T07:10:55.978Z,4.74
2017-12-30T07:13:56.009Z,4.77
2017-12-30T07:14:56.148Z,4.76
2017-12-30T07:15:56.289Z,4.79
2017-12-30T07:16:57.027Z,4.74
2017-12-30T07:17:55.904Z,4.76
2017-12-30T07:18:56.026Z,4.76
2017-12-30T07:19:56.116Z,4.76
2017-12-30T07:20:56.072Z,4.79
2017-12-30T07:21:56.204Z,4.79
2017-12-30T07:22:56.116Z,4.77
2017-12-30T07:23:56.071Z,4.77
2017-12-30T07:24:56.198Z,4.8
2017-12-30T07:25:55.536Z,4.77
2017-12-30T07:26:55.592Z,4.76
2017-12-30T07:27:55.759Z,4.76
2017-12-30T07:28:55.277Z,4.79
2017-12-30T07:29:56.159Z,4.76
2017-12-30T07:30:56.173Z,4.77
2017-12-30T07:31:56.327Z,4.79
2017-12-30T07:32:55.302Z,4.74
2017-12-30T07:33:55.209Z,4.77
2017-12-30T07:34:56.190Z,4.77
2017-12-30T07:35:55.158Z,4.76
2017-12-30T07:36:56.219Z,4.79
2017-12-30T07:37:55.214Z,4.76
2017-12-30T07:38:56.087Z,4.77
2017-12-30T07:39:56.099Z,4.77
2017-12-30T07:40:56.013Z,4.79
2017-12-30T07:41:56.082Z,4.77
2017-12-30T07:42:56.198Z,4.76
2017-12-30T07:43:55.335Z,4.76
2017-12-30T07:44:55.179Z,4.76
2017-12-30T07:45:56.114Z,4.76
2017-12-30T07:48:03.579Z,4.73
2017-12-30T07:48:55.507Z,4.74
2017-12-30T07:49:55.557Z,4.73
2017-12-30T07:50:55.470Z,4.74
2017-12-30T07:51:55.466Z,4.73
2017-12-30T07:52:55.470Z,4.76
2017-12-30T07:53:55.674Z,4.76
2017-12-30T07:54:56.508Z,4.74
2017-12-30T07:55:56.351Z,4.76
2017-12-30T07:56:56.255Z,4.74
2017-12-30T07:57:56.273Z,4.72
2017-12-30T07:58:56.304Z,4.76
2017-12-30T07:59:56.408Z,4.76
2017-12-30T08:00:56.424Z,4.76
2017-12-30T08:01:56.347Z,4.74
2017-12-30T08:02:56.271Z,4.72
2017-12-30T08:03:56.513Z,4.72
2017-12-30T08:04:56.474Z,4.7
2017-12-30T08:05:56.520Z,4.69
2017-12-30T08:06:56.390Z,4.67
2017-12-30T08:07:56.389Z,4.66
2017-12-30T08:08:56.473Z,4.66
2017-12-30T08:09:56.708Z,4.65
2017-12-30T08:10:55.857Z,4.65
2017-12-30T08:11:55.856Z,4.6
2017-12-30T08:12:55.953Z,4.59
2017-12-30T08:13:56.064Z,4.59
2017-12-30T08:14:56.069Z,4.56
2017-12-30T08:15:56.074Z,4.56
2017-12-30T08:16:56.104Z,4.55
2017-12-30T08:17:56.139Z,4.55
2017-12-30T08:18:56.277Z,4.53
2017-12-30T08:19:56.128Z,4.52
2017-12-30T08:20:56.147Z,4.52
2017-12-30T08:21:56.283Z,4.51
2017-12-30T08:22:56.516Z,4.49
2017-12-30T08:23:56.626Z,4.49
2017-12-30T08:24:55.606Z,4.49
2017-12-30T08:25:56.547Z,4.48
2017-12-30T08:26:56.681Z,4.48
2017-12-30T08:27:55.697Z,4.51
2017-12-30T08:28:56.407Z,4.48
2017-12-30T08:29:56.208Z,4.49
2017-12-30T08:30:56.105Z,4.48
2017-12-30T08:31:56.239Z,4.45
2017-12-30T08:32:56.261Z,4.48
2017-12-30T08:33:56.434Z,4.46
2017-12-30T08:34:56.684Z,4.48
2017-12-30T08:35:55.834Z,4.46
2017-12-30T08:36:55.943Z,4.46
2017-12-30T08:37:55.978Z,4.43
2017-12-30T08:38:56.204Z,4.45
2017-12-30T08:39:56.308Z,4.45
2017-12-30T08:40:56.423Z,4.45
2017-12-30T08:41:56.519Z,4.45
2017-12-30T08:43:58.390Z,4.42
2017-12-30T08:44:56.575Z,4.45
2017-12-30T08:45:55.664Z,4.43
2017-12-30T08:46:56.783Z,4.45
2017-12-30T08:47:55.717Z,4.43
2017-12-30T08:48:56.706Z,4.43
2017-12-30T08:49:56.031Z,4.42
2017-12-30T08:50:56.027Z,4.4
2017-12-30T08:51:56.144Z,4.4
2017-12-30T08:52:56.148Z,4.39
2017-12-30T08:53:56.266Z,4.4
2017-12-30T08:54:56.735Z,4.4
2017-12-30T08:55:55.803Z,4.43
2017-12-30T08:56:55.776Z,4.42
2017-12-30T08:57:55.897Z,4.43
2017-12-30T08:58:55.920Z,4.43
2017-12-30T08:59:55.976Z,4.43
2017-12-30T09:00:56.194Z,4.46
2017-12-30T09:01:55.157Z,4.45
2017-12-30T09:02:56.146Z,4.48
2017-12-30T09:03:56.117Z,4.49
2017-12-30T09:04:55.958Z,4.48
2017-12-30T09:05:56.082Z,4.45
2017-12-30T09:06:56.093Z,4.49
2017-12-30T09:07:56.301Z,4.48
2017-12-30T09:08:55.467Z,4.49
2017-12-30T09:09:55.630Z,4.51
2017-12-30T09:10:56.084Z,4.51
2017-12-30T09:11:56.043Z,4.48
2017-12-30T09:12:56.318Z,4.52
2017-12-30T09:13:55.482Z,4.53
2017-12-30T09:14:55.533Z,4.52
2017-12-30T09:15:56.005Z,4.52
2017-12-30T09:16:55.998Z,4.55
2017-12-30T09:17:56.102Z,4.53
2017-12-30T09:18:56.117Z,4.57
2017-12-30T09:19:55.442Z,4.56
2017-12-30T09:20:55.789Z,4.55
2017-12-30T09:21:55.956Z,4.57
2017-12-30T09:22:56.051Z,4.57
2017-12-30T09:24:55.713Z,4.59
2017-12-30T09:25:55.856Z,4.59
2017-12-30T09:26:55.009Z,4.56
2017-12-30T09:27:55.038Z,4.59
2017-12-30T09:28:55.155Z,4.56
2017-12-30T09:29:54.965Z,4.56
2017-12-30T09:30:54.954Z,4.57
2017-12-30T09:31:54.964Z,4.56
2017-12-30T09:32:55.007Z,4.59
2017-12-30T09:33:55.052Z,4.57
2017-12-30T09:34:55.375Z,4.57
2017-12-30T09:35:55.328Z,4.57
2017-12-30T09:36:55.356Z,4.59
2017-12-30T09:37:55.411Z,4.59
2017-12-30T09:38:55.602Z,4.62
2017-12-30T09:39:55.774Z,4.6
2017-12-30T09:40:55.264Z,4.62
2017-12-30T09:41:55.109Z,4.6
2017-12-30T09:42:55.309Z,4.6
2017-12-30T09:43:55.291Z,4.6
2017-12-30T09:44:55.407Z,4.63
2017-12-30T09:45:55.450Z,4.62
2017-12-30T09:46:55.512Z,4.6
2017-12-30T09:47:55.407Z,4.63
2017-12-30T09:48:55.448Z,4.6
2017-12-30T09:49:55.239Z,4.63
2017-12-30T09:50:55.278Z,4.66
2017-12-30T09:51:55.218Z,4.65
2017-12-30T09:52:55.338Z,4.62
2017-12-30T09:53:55.615Z,4.63
2017-12-30T09:54:55.763Z,4.6
2017-12-30T09:55:55.693Z,4.65
2017-12-30T09:56:55.767Z,4.65
2017-12-30T09:57:55.692Z,4.65
2017-12-30T09:58:55.940Z,4.65
2017-12-30T09:59:55.879Z,4.66
2017-12-30T10:00:55.940Z,4.66
2017-12-30T10:01:55.873Z,4.65
2017-12-30T10:02:55.839Z,4.66
2017-12-30T10:03:55.762Z,4.67
2017-12-30T10:04:56.798Z,4.66
2017-12-30T10:05:55.735Z,4.69
2017-12-30T10:06:56.879Z,4.66
2017-12-30T10:07:55.960Z,4.66
2017-12-30T10:08:55.940Z,4.66
2017-12-30T10:09:55.867Z,4.65
2017-12-30T10:10:55.816Z,4.66
2017-12-30T10:11:55.818Z,4.66
2017-12-30T10:12:55.855Z,4.67
2017-12-30T10:13:55.894Z,4.66
2017-12-30T10:14:55.915Z,4.66
2017-12-30T10:15:56.130Z,4.67
2017-12-30T10:16:56.094Z,4.65
2017-12-30T10:17:56.271Z,4.66
2017-12-30T10:18:56.266Z,4.67
2017-12-30T10:19:56.399Z,4.67
2017-12-30T10:20:56.745Z,4.67
2017-12-30T10:21:55.907Z,4.7
2017-12-30T10:22:55.904Z,4.7
2017-12-30T10:23:57.218Z,4.72
2017-12-30T10:24:56.498Z,4.72
2017-12-30T10:25:56.592Z,4.73
2017-12-30T10:26:55.786Z,4.73
2017-12-30T10:27:55.738Z,4.76
2017-12-30T10:28:55.730Z,4.76
2017-12-30T10:29:56.594Z,4.74
2017-12-30T10:30:56.752Z,4.77
2017-12-30T10:31:55.937Z,4.77
2017-12-30T10:32:55.927Z,4.79
2017-12-30T10:33:55.967Z,4.83
2017-12-30T10:34:56.214Z,4.84
2017-12-30T10:35:56.117Z,4.87
2017-12-30T10:36:56.431Z,4.87
2017-12-30T10:37:56.397Z,4.87
2017-12-30T10:38:56.336Z,4.88
2017-12-30T10:39:56.398Z,4.91
2017-12-30T10:40:58.130Z,4.9
2017-12-30T10:41:56.374Z,4.91
2017-12-30T10:42:56.405Z,4.93
2017-12-30T10:43:56.653Z,4.94
2017-12-30T10:44:56.644Z,4.94
2017-12-30T10:45:59.238Z,4.95
2017-12-30T10:46:56.426Z,4.95
2017-12-30T10:47:56.489Z,4.98
2017-12-30T10:48:30.214Z,4.98
2017-12-30T10:49:30.202Z,5.07
2017-12-30T10:50:30.423Z,5.08
2017-12-30T10:51:30.393Z,5.08
2017-12-30T10:52:30.522Z,5.11
2017-12-30T10:53:30.672Z,5.14
2017-12-30T10:54:29.986Z,5.15
2017-12-30T10:55:30.068Z,5.15
2017-12-30T10:56:30.359Z,5.18
2017-12-30T10:57:30.389Z,5.18
2017-12-30T10:58:30.514Z,5.16
2017-12-30T10:59:30.438Z,5.19
2017-12-30T11:00:30.381Z,5.21
2017-12-30T11:01:30.432Z,5.25
2017-12-30T11:02:30.620Z,5.25
2017-12-30T11:03:29.701Z,5.26
2017-12-30T11:04:29.587Z,5.32
2017-12-30T11:05:29.375Z,5.35
2017-12-30T11:06:30.494Z,5.35
2017-12-30T11:07:30.367Z,5.4
2017-12-30T11:08:30.596Z,5.39
2017-12-30T11:09:29.681Z,5.42
2017-12-30T11:10:29.831Z,5.4
2017-12-30T11:11:32.218Z,5.43
2017-12-30T11:12:30.012Z,5.43
2017-12-30T11:13:29.943Z,5.47
2017-12-30T11:14:29.849Z,5.49
2017-12-30T11:15:29.780Z,5.5
2017-12-30T11:16:29.844Z,5.49
2017-12-30T11:17:29.784Z,5.53
2017-12-30T11:18:29.896Z,5.6
2017-12-30T11:19:29.196Z,5.6
2017-12-30T11:20:29.222Z,5.63
2017-12-30T11:21:29.055Z,5.64
2017-12-30T11:22:29.029Z,5.67
2017-12-30T11:23:29.098Z,5.69
2017-12-30T11:24:29.404Z,5.7
2017-12-30T11:25:29.609Z,5.73
2017-12-30T11:26:29.670Z,5.75
2017-12-30T11:27:29.735Z,5.83
2017-12-30T11:28:29.678Z,5.84
2017-12-30T11:29:29.889Z,5.88
2017-12-30T11:30:29.017Z,5.91
2017-12-30T11:31:29.008Z,5.94
2017-12-30T11:32:28.837Z,5.95
2017-12-30T11:33:29.903Z,6
2017-12-30T11:34:28.929Z,6.04
2017-12-30T11:35:28.879Z,6.05
2017-12-30T11:36:29.138Z,6.09
2017-12-30T11:37:29.085Z,6.12
2017-12-30T11:38:29.033Z,6.13
2017-12-30T11:39:28.937Z,6.16
2017-12-30T11:40:28.995Z,6.18
2017-12-30T11:41:28.967Z,6.28
2017-12-30T11:42:29.088Z,6.3
2017-12-30T11:43:29.119Z,6.3
2017-12-30T11:44:29.165Z,6.37
2017-12-30T11:45:29.155Z,6.37
2017-12-30T11:46:29.551Z,6.41
2017-12-30T11:47:29.583Z,6.47
2017-12-30T11:48:29.615Z,6.48
2017-12-30T11:49:29.694Z,6.47
2017-12-30T11:50:29.893Z,6.5
2017-12-30T11:51:29.960Z,6.51
2017-12-30T11:52:29.964Z,6.54
2017-12-30T11:53:29.840Z,6.56
2017-12-30T11:54:29.954Z,6.57
2017-12-30T11:55:30.223Z,6.61
2017-12-30T11:56:30.138Z,6.64
2017-12-30T11:57:30.118Z,6.68
2017-12-30T11:58:29.785Z,6.75
2017-12-30T11:59:29.949Z,6.78
2017-12-30T12:00:29.878Z,6.81
2017-12-30T12:01:29.767Z,6.83
2017-12-30T12:02:29.902Z,6.84
2017-12-30T12:03:29.881Z,6.88
2017-12-30T12:04:29.966Z,6.94
2017-12-30T12:05:30.369Z,6.98
2017-12-30T12:06:30.543Z,6.99
2017-12-30T12:07:30.566Z,7.01
2017-12-30T12:08:30.473Z,7.05
2017-12-30T12:09:30.444Z,7.08
2017-12-30T12:10:30.470Z,7.11
2017-12-30T12:11:31.335Z,7.15
2017-12-30T12:12:58.661Z,7.13
2017-12-30T12:13:29.738Z,7.13
2017-12-30T12:14:29.686Z,7.15
2017-12-30T12:15:29.828Z,7.19
2017-12-30T12:16:29.935Z,7.23
2017-12-30T12:17:30.161Z,7.27
2017-12-30T12:18:30.177Z,7.3
2017-12-30T12:19:30.072Z,7.31
2017-12-30T12:20:29.919Z,7.34
2017-12-30T12:21:29.901Z,7.39
2017-12-30T12:22:30.108Z,7.4
2017-12-30T12:23:30.163Z,7.4
2017-12-30T12:24:29.944Z,7.47
2017-12-30T12:25:29.878Z,7.47
2017-12-30T12:26:29.675Z,7.5
2017-12-30T12:27:29.707Z,7.53
2017-12-30T12:28:29.534Z,7.55
2017-12-30T12:29:29.443Z,7.59
2017-12-30T12:30:30.216Z,7.62
2017-12-30T12:31:30.165Z,7.68
2017-12-30T12:32:30.196Z,7.74
2017-12-30T12:33:29.417Z,7.77
2017-12-30T12:34:29.197Z,7.84
2017-12-30T12:35:30.079Z,7.85
2017-12-30T12:37:29.684Z,7.91
2017-12-30T12:38:30.436Z,7.93
2017-12-30T12:39:29.950Z,7.93
2017-12-30T12:40:30.344Z,7.96
2017-12-30T12:41:29.905Z,7.98
2017-12-30T12:42:30.060Z,8.09
2017-12-30T12:43:30.459Z,8.1
2017-12-30T12:44:30.085Z,8.13
2017-12-30T12:45:30.368Z,8.13
2017-12-30T12:46:29.978Z,8.14
2017-12-30T12:47:30.189Z,8.17
2017-12-30T12:48:29.798Z,8.21
2017-12-30T12:49:30.276Z,8.23
2017-12-30T12:50:29.814Z,8.24
2017-12-30T12:51:30.215Z,8.26
2017-12-30T12:52:31.259Z,8.3
2017-12-30T12:53:29.591Z,8.3
2017-12-30T12:54:30.746Z,8.29
2017-12-30T12:55:30.054Z,8.29
2017-12-30T12:56:30.228Z,8.36
2017-12-30T12:57:31.065Z,8.36
2017-12-30T12:58:30.649Z,8.37
2017-12-30T12:59:29.939Z,8.4
2017-12-30T13:00:30.192Z,8.38
2017-12-30T13:01:30.292Z,8.37
2017-12-30T13:02:30.628Z,8.38
2017-12-30T13:03:30.087Z,8.4
2017-12-30T13:04:32.660Z,8.41
2017-12-30T13:05:30.519Z,8.41
2017-12-30T13:06:30.633Z,8.43
2017-12-30T13:07:30.078Z,8.44
2017-12-30T13:08:30.353Z,8.45
2017-12-30T13:09:30.728Z,8.45
2017-12-30T13:10:30.168Z,8.48
2017-12-30T13:11:30.124Z,8.51
2017-12-30T13:12:30.211Z,8.49
2017-12-30T13:13:30.276Z,8.51
2017-12-30T13:14:30.659Z,8.51
2017-12-30T13:15:30.017Z,8.49
2017-12-30T13:16:30.362Z,8.49
2017-12-30T13:17:29.784Z,8.51
2017-12-30T13:18:30.018Z,8.51
2017-12-30T13:19:30.325Z,8.52
2017-12-30T13:20:30.715Z,8.52
2017-12-30T13:21:30.054Z,8.55
2017-12-30T13:22:30.236Z,8.54
2017-12-30T13:23:30.435Z,8.55
2017-12-30T13:24:29.552Z,8.55
2017-12-30T13:25:29.474Z,8.58
2017-12-30T13:26:33.256Z,8.57
2017-12-30T13:27:29.543Z,8.59
2017-12-30T13:28:29.675Z,8.62
2017-12-30T13:29:29.771Z,8.62
2017-12-30T13:30:30.080Z,8.66
2017-12-30T13:31:29.945Z,8.68
2017-12-30T13:32:29.827Z,8.68